Terminal Aerodrome Forecast
Issued by NWS

Home | Current Version | Previous Version | Text Only | Print | Product List | Glossary On
Versions: 1 2 3 4 5 6 7 8 9 10 11 12 13 14 15 16 17
103
FTUS41 KBTV 131452 AAA
TAFRUT
TAF AMD
KRUT 131452Z 1315/1412 26008G18KT P6SM BKN050
     FM131800 30011KT P6SM BKN035
     FM140900 31009KT P6SM SCT140
      AMD LTD TO CLD VIS AND WIND=

USA.gov is the U.S. government's official web portal to all federal, state and local government web resources and services.